createdAt,value
2018-09-08T00:00:09.384Z,22.80
2018-09-08T00:01:09.559Z,21.10
2018-09-08T00:02:09.762Z,23.20
2018-09-08T00:03:09.948Z,20.20
2018-09-08T00:04:10.132Z,20.60
2018-09-08T00:05:10.324Z,23.10
2018-09-08T00:06:10.501Z,21.30
2018-09-08T00:07:10.700Z,25.00
2018-09-08T00:08:10.877Z,22.70
2018-09-08T00:09:11.061Z,24.40
2018-09-08T00:10:11.243Z,24.30
2018-09-08T00:11:11.422Z,23.00
2018-09-08T00:12:11.613Z,25.00
2018-09-08T00:13:11.803Z,24.90
2018-09-08T00:14:11.980Z,22.00
2018-09-08T00:15:12.165Z,20.80
2018-09-08T00:16:12.365Z,22.90
2018-09-08T00:17:12.562Z,26.30
2018-09-08T00:18:13.649Z,26.70
2018-09-08T00:19:12.953Z,25.00
2018-09-08T00:20:13.173Z,25.50
2018-09-08T00:21:13.353Z,25.70
2018-09-08T00:22:13.548Z,22.10
2018-09-08T00:23:13.733Z,24.90
2018-09-08T00:24:13.933Z,26.20
2018-09-08T00:25:14.110Z,22.90
2018-09-08T00:26:14.314Z,22.70
2018-09-08T00:27:14.494Z,25.10
2018-09-08T00:28:14.694Z,25.50
2018-09-08T00:29:14.892Z,25.20
2018-09-08T00:30:15.073Z,23.60
2018-09-08T00:31:15.301Z,25.10
2018-09-08T00:32:15.497Z,24.40
2018-09-08T00:33:15.706Z,24.20
2018-09-08T00:34:15.899Z,23.00
2018-09-08T00:35:16.077Z,21.60
2018-09-08T00:36:16.270Z,23.50
2018-09-08T00:37:16.452Z,21.90
2018-09-08T00:38:16.642Z,24.10
2018-09-08T00:39:16.834Z,25.90
2018-09-08T00:40:17.046Z,22.30
2018-09-08T00:41:17.210Z,22.30
2018-09-08T00:42:17.395Z,23.90
2018-09-08T00:43:17.582Z,24.00
2018-09-08T00:44:17.771Z,22.30
2018-09-08T00:45:17.953Z,25.70
2018-09-08T00:46:18.148Z,24.70
2018-09-08T00:47:18.331Z,24.20
2018-09-08T00:48:18.516Z,28.20
2018-09-08T00:49:18.701Z,23.80
2018-09-08T00:50:18.894Z,24.10
2018-09-08T00:51:19.077Z,22.20
2018-09-08T00:52:19.274Z,23.30
2018-09-08T00:53:19.461Z,21.90
2018-09-08T00:54:19.650Z,23.20
2018-09-08T00:55:19.840Z,24.30
2018-09-08T00:56:20.025Z,26.00
2018-09-08T00:57:20.217Z,22.80
2018-09-08T00:58:20.409Z,22.20
2018-09-08T00:59:20.592Z,22.40
2018-09-08T01:00:20.782Z,30.20
2018-09-08T01:01:20.970Z,32.30
2018-09-08T01:02:21.154Z,51.60
2018-09-08T01:03:21.339Z,109.40
2018-09-08T01:04:21.527Z,67.80
2018-09-08T01:05:21.713Z,129.40
2018-09-08T01:06:21.897Z,90.80
2018-09-08T01:07:22.084Z,103.50
2018-09-08T01:08:22.277Z,93.60
2018-09-08T01:09:22.459Z,57.80
2018-09-08T01:10:22.648Z,35.60
2018-09-08T01:11:22.832Z,95.40
2018-09-08T01:12:23.032Z,105.40
2018-09-08T01:13:23.213Z,87.40
2018-09-08T01:14:23.403Z,73.70
2018-09-08T01:15:23.598Z,116.60
2018-09-08T01:16:23.785Z,173.10
2018-09-08T01:17:23.972Z,170.40
2018-09-08T01:18:24.163Z,83.70
2018-09-08T01:19:24.346Z,87.60
2018-09-08T01:20:24.533Z,72.10
2018-09-08T01:21:24.721Z,53.50
2018-09-08T01:22:24.912Z,110.90
2018-09-08T01:23:25.103Z,58.80
2018-09-08T01:24:25.288Z,34.10
2018-09-08T01:25:25.484Z,35.60
2018-09-08T01:26:25.669Z,50.90
2018-09-08T01:27:25.861Z,50.00
2018-09-08T01:28:26.047Z,29.60
2018-09-08T01:29:26.239Z,42.00
2018-09-08T01:30:26.424Z,32.50
2018-09-08T01:31:26.613Z,29.90
2018-09-08T01:32:26.799Z,27.90
2018-09-08T01:33:26.988Z,54.20
2018-09-08T01:34:27.174Z,45.40
2018-09-08T01:35:27.367Z,116.10
2018-09-08T01:36:27.562Z,153.00
2018-09-08T01:37:27.752Z,193.00
2018-09-08T01:38:27.939Z,234.30
2018-09-08T01:39:28.121Z,152.80
2018-09-08T01:40:28.310Z,201.90
2018-09-08T01:41:28.496Z,231.30
2018-09-08T01:42:28.680Z,237.00
2018-09-08T01:43:28.869Z,306.90
2018-09-08T01:44:29.055Z,246.10
2018-09-08T01:45:29.234Z,216.50
2018-09-08T01:46:29.416Z,159.00
2018-09-08T01:47:29.602Z,205.00
2018-09-08T01:48:29.792Z,224.90
2018-09-08T01:49:29.976Z,218.00
2018-09-08T01:50:30.162Z,187.90
2018-09-08T01:51:30.351Z,166.10
2018-09-08T01:52:30.545Z,190.20
2018-09-08T01:53:30.729Z,58.00
2018-09-08T01:54:30.929Z,76.00
2018-09-08T01:55:31.111Z,86.60
2018-09-08T01:56:31.297Z,163.40
2018-09-08T01:57:31.482Z,106.80
2018-09-08T01:58:31.670Z,87.10
2018-09-08T01:59:31.859Z,63.20
2018-09-08T02:00:32.042Z,36.80
2018-09-08T02:01:32.229Z,101.60
2018-09-08T02:02:32.414Z,109.10
2018-09-08T02:03:32.596Z,78.20
2018-09-08T02:04:32.795Z,72.40
2018-09-08T02:05:32.984Z,183.70
2018-09-08T02:06:33.165Z,140.70
2018-09-08T02:07:33.355Z,183.50
2018-09-08T02:08:33.542Z,187.10
2018-09-08T02:09:33.728Z,223.20
2018-09-08T02:10:33.919Z,147.70
2018-09-08T02:11:34.101Z,190.80
2018-09-08T02:12:34.284Z,282.90
2018-09-08T02:13:34.469Z,254.20
2018-09-08T02:14:34.657Z,261.00
2018-09-08T02:15:34.842Z,249.50
2018-09-08T02:16:35.030Z,257.00
2018-09-08T02:17:35.215Z,218.10
2018-09-08T02:18:35.403Z,203.00
2018-09-08T02:19:35.585Z,171.70
2018-09-08T02:20:35.774Z,117.40
2018-09-08T02:21:35.965Z,84.30
2018-09-08T02:22:36.148Z,113.20
2018-09-08T02:23:36.336Z,127.20
2018-09-08T02:24:36.520Z,89.40
2018-09-08T02:25:36.710Z,106.70
2018-09-08T02:26:36.892Z,144.90
2018-09-08T02:27:37.076Z,138.00
2018-09-08T02:28:37.272Z,151.10
2018-09-08T02:29:37.457Z,116.80
2018-09-08T02:30:37.637Z,91.80
2018-09-08T02:31:37.828Z,82.30
2018-09-08T02:32:38.008Z,82.50
2018-09-08T02:33:38.201Z,189.30
2018-09-08T02:34:38.383Z,142.60
2018-09-08T02:35:38.569Z,225.90
2018-09-08T02:36:38.800Z,204.60
2018-09-08T02:37:38.944Z,176.50
2018-09-08T02:38:39.127Z,142.70
2018-09-08T02:39:39.315Z,99.40
2018-09-08T02:40:39.498Z,104.10
2018-09-08T02:41:39.684Z,70.10
2018-09-08T02:42:39.867Z,78.20
2018-09-08T02:43:40.054Z,123.90
2018-09-08T02:44:40.240Z,110.00
2018-09-08T02:45:40.425Z,78.70
2018-09-08T02:46:40.605Z,93.20
2018-09-08T02:47:40.800Z,97.80
2018-09-08T02:48:40.982Z,94.30
2018-09-08T02:49:41.174Z,87.00
2018-09-08T02:50:41.358Z,96.30
2018-09-08T02:51:41.540Z,118.40
2018-09-08T02:52:41.722Z,67.50
2018-09-08T02:53:41.920Z,68.60
2018-09-08T02:54:42.105Z,59.50
2018-09-08T02:55:42.287Z,65.30
2018-09-08T02:56:42.475Z,43.40
2018-09-08T02:57:42.663Z,46.80
2018-09-08T02:58:42.862Z,53.30
2018-09-08T02:59:43.038Z,48.80
2018-09-08T03:00:43.225Z,67.50
2018-09-08T03:01:43.414Z,55.40
2018-09-08T03:02:43.598Z,45.90
2018-09-08T03:03:43.787Z,65.20
2018-09-08T03:04:43.978Z,97.60
2018-09-08T03:05:44.171Z,106.70
2018-09-08T03:06:44.355Z,62.00
2018-09-08T03:07:44.540Z,75.90
2018-09-08T03:08:44.724Z,70.20
2018-09-08T03:09:44.905Z,62.70
2018-09-08T03:10:45.092Z,54.20
2018-09-08T03:11:45.282Z,79.90
2018-09-08T03:12:45.462Z,76.80
2018-09-08T03:13:45.654Z,63.60
2018-09-08T03:14:45.839Z,73.20
2018-09-08T03:15:46.024Z,60.60
2018-09-08T03:16:46.210Z,53.90
2018-09-08T03:17:46.394Z,54.30
2018-09-08T03:18:46.583Z,50.60
2018-09-08T03:19:46.771Z,74.20
2018-09-08T03:20:46.957Z,36.40
2018-09-08T03:21:47.141Z,44.30
2018-09-08T03:22:47.326Z,28.40
2018-09-08T03:23:47.510Z,23.00
2018-09-08T03:24:47.700Z,21.40
2018-09-08T03:25:47.888Z,21.20
2018-09-08T03:26:48.076Z,34.90
2018-09-08T03:27:48.264Z,141.30
2018-09-08T03:28:48.445Z,256.10
2018-09-08T03:29:48.635Z,55.60
2018-09-08T03:30:48.819Z,51.80
2018-09-08T03:31:49.002Z,77.70
2018-09-08T03:32:49.194Z,115.80
2018-09-08T03:33:49.381Z,102.40
2018-09-08T03:34:49.568Z,49.90
2018-09-08T03:35:49.760Z,103.80
2018-09-08T03:36:49.940Z,74.80
2018-09-08T03:37:50.128Z,70.50
2018-09-08T03:38:50.309Z,52.60
2018-09-08T03:39:50.499Z,63.70
2018-09-08T03:40:50.681Z,116.30
2018-09-08T03:41:50.868Z,51.00
2018-09-08T03:42:51.056Z,76.40
2018-09-08T03:43:51.241Z,148.50
2018-09-08T03:44:51.423Z,148.00
2018-09-08T03:45:51.613Z,121.60
2018-09-08T03:46:51.795Z,173.30
2018-09-08T03:47:51.982Z,185.70
2018-09-08T03:48:52.164Z,202.30
2018-09-08T03:49:52.355Z,170.60
2018-09-08T03:50:52.540Z,172.80
2018-09-08T03:51:52.728Z,201.50
2018-09-08T03:52:52.924Z,191.20
2018-09-08T03:53:53.110Z,161.80
2018-09-08T03:54:53.293Z,243.10
2018-09-08T03:55:53.485Z,210.10
2018-09-08T03:56:53.669Z,173.30
2018-09-08T03:57:53.857Z,149.40
2018-09-08T03:58:54.111Z,192.10
2018-09-08T03:59:54.233Z,196.20
2018-09-08T04:00:54.418Z,172.10
2018-09-08T04:01:54.604Z,159.50
2018-09-08T04:02:54.800Z,158.10
2018-09-08T04:03:54.988Z,155.80
2018-09-08T04:04:55.179Z,183.40
2018-09-08T04:05:55.356Z,134.70
2018-09-08T04:06:55.564Z,222.40
2018-09-08T04:07:55.738Z,234.00
2018-09-08T04:08:55.932Z,166.50
2018-09-08T04:09:56.135Z,235.70
2018-09-08T04:10:56.323Z,227.00
2018-09-08T04:11:56.510Z,199.10
2018-09-08T04:12:56.694Z,148.40
2018-09-08T04:13:56.882Z,199.10
2018-09-08T04:14:57.071Z,244.20
2018-09-08T04:15:57.253Z,118.60
2018-09-08T04:16:57.443Z,96.60
2018-09-08T04:17:57.652Z,77.20
2018-09-08T04:18:57.816Z,157.30
2018-09-08T04:19:57.998Z,116.00
2018-09-08T04:20:58.184Z,95.90
2018-09-08T04:21:58.371Z,124.80
2018-09-08T04:22:58.554Z,99.80
2018-09-08T04:23:58.752Z,77.10
2018-09-08T04:24:58.928Z,69.10
2018-09-08T04:25:59.117Z,90.60
2018-09-08T04:26:59.303Z,78.30
2018-09-08T04:27:59.490Z,72.80
2018-09-08T04:28:59.669Z,92.10
2018-09-08T04:29:59.857Z,68.70
2018-09-08T04:31:00.047Z,111.00
2018-09-08T04:32:00.232Z,99.10
2018-09-08T04:33:00.416Z,98.30
2018-09-08T04:34:00.603Z,103.90
2018-09-08T04:35:00.788Z,117.40
2018-09-08T04:36:00.970Z,126.60
2018-09-08T04:37:01.156Z,116.00
2018-09-08T04:38:01.345Z,69.20
2018-09-08T04:39:01.532Z,80.40
2018-09-08T04:40:01.711Z,102.40
2018-09-08T04:41:01.948Z,95.80
2018-09-08T04:42:02.088Z,86.20
2018-09-08T04:43:02.277Z,123.60
2018-09-08T04:44:02.464Z,97.20
2018-09-08T04:45:02.650Z,79.80
2018-09-08T04:46:02.837Z,140.80
2018-09-08T04:47:03.019Z,159.80
2018-09-08T04:48:03.211Z,163.20
2018-09-08T04:49:03.451Z,133.20
2018-09-08T04:50:03.588Z,317.10
2018-09-08T04:51:03.768Z,132.30
2018-09-08T04:52:03.951Z,162.50
2018-09-08T04:53:04.142Z,178.70
2018-09-08T04:54:04.325Z,120.70
2018-09-08T04:55:04.511Z,127.20
2018-09-08T04:56:04.695Z,154.10
2018-09-08T04:57:04.881Z,81.10
2018-09-08T04:58:05.068Z,117.60
2018-09-08T04:59:05.259Z,119.50
2018-09-08T05:00:05.439Z,174.80
2018-09-08T05:01:05.622Z,195.60
2018-09-08T05:02:05.817Z,152.80
2018-09-08T05:03:05.995Z,185.00
2018-09-08T05:04:06.183Z,236.90
2018-09-08T05:05:06.365Z,136.90
2018-09-08T05:06:06.552Z,195.90
2018-09-08T05:07:06.738Z,194.60
2018-09-08T05:08:06.929Z,225.00
2018-09-08T05:09:07.138Z,177.60
2018-09-08T05:10:07.296Z,247.40
2018-09-08T05:11:07.487Z,203.60
2018-09-08T05:12:07.675Z,171.20
2018-09-08T05:13:07.859Z,198.50
2018-09-08T05:14:08.045Z,195.30
2018-09-08T05:15:08.234Z,158.20
2018-09-08T05:16:08.423Z,164.00
2018-09-08T05:17:08.610Z,123.90
2018-09-08T05:18:08.790Z,152.90
2018-09-08T05:19:08.977Z,175.90
2018-09-08T05:20:09.159Z,170.30
2018-09-08T05:21:09.346Z,132.00
2018-09-08T05:22:09.530Z,105.60
2018-09-08T05:23:09.732Z,117.70
2018-09-08T05:24:09.908Z,137.40
2018-09-08T05:25:10.087Z,164.40
2018-09-08T05:26:10.274Z,146.60
2018-09-08T05:27:10.458Z,129.60
2018-09-08T05:28:10.645Z,106.40
2018-09-08T05:29:10.843Z,178.80
2018-09-08T05:30:11.016Z,139.70
2018-09-08T05:31:11.204Z,108.20
2018-09-08T05:32:11.390Z,125.60
2018-09-08T05:33:11.578Z,95.80
2018-09-08T05:34:11.764Z,150.90
2018-09-08T05:35:11.947Z,113.20
2018-09-08T05:36:12.129Z,112.60
2018-09-08T05:37:12.317Z,132.10
2018-09-08T05:38:12.503Z,221.90
2018-09-08T05:39:12.703Z,132.00
2018-09-08T05:40:12.885Z,151.80
2018-09-08T05:41:13.067Z,231.30
2018-09-08T05:42:13.256Z,249.00
2018-09-08T05:43:13.445Z,224.30
2018-09-08T05:44:13.629Z,180.30
2018-09-08T05:45:13.815Z,187.80
2018-09-08T05:46:13.999Z,165.40
2018-09-08T05:47:14.181Z,106.90
2018-09-08T05:48:14.372Z,135.90
2018-09-08T05:49:14.557Z,177.70
2018-09-08T05:50:14.744Z,173.50
2018-09-08T05:51:14.936Z,197.70
2018-09-08T05:52:15.121Z,157.70
2018-09-08T05:53:15.309Z,201.30
2018-09-08T05:54:15.492Z,221.70
2018-09-08T05:55:15.681Z,143.80
2018-09-08T05:56:15.866Z,73.70
2018-09-08T05:57:16.056Z,91.60
2018-09-08T05:58:16.250Z,142.90
2018-09-08T05:59:16.419Z,94.70
2018-09-08T06:00:16.616Z,94.50
2018-09-08T06:01:16.807Z,268.20
2018-09-08T06:02:17.006Z,145.20
2018-09-08T06:03:17.193Z,194.10
2018-09-08T06:04:17.378Z,394.00
2018-09-08T06:05:17.568Z,366.60
2018-09-08T06:06:17.767Z,255.10
2018-09-08T06:07:17.948Z,334.20
2018-09-08T06:08:18.136Z,335.80
2018-09-08T06:09:18.322Z,283.80
2018-09-08T06:10:18.544Z,333.90
2018-09-08T06:11:18.697Z,131.80
2018-09-08T06:12:18.891Z,272.50
2018-09-08T06:13:19.082Z,400.00
2018-09-08T06:14:19.268Z,420.30
2018-09-08T06:15:19.452Z,326.90
2018-09-08T06:16:19.636Z,405.40
2018-09-08T06:17:19.842Z,419.10
2018-09-08T06:18:20.050Z,386.60
2018-09-08T06:19:20.200Z,399.70
2018-09-08T06:20:20.385Z,447.00
2018-09-08T06:21:20.570Z,280.30
2018-09-08T06:22:20.760Z,233.70
2018-09-08T06:23:20.949Z,282.70
2018-09-08T06:24:21.164Z,269.60
2018-09-08T06:25:21.433Z,262.10
2018-09-08T06:26:21.508Z,367.80
2018-09-08T06:27:21.690Z,404.50
2018-09-08T06:28:21.923Z,384.80
2018-09-08T06:29:22.070Z,309.60
2018-09-08T06:30:22.256Z,372.50
2018-09-08T06:31:22.441Z,587.00
2018-09-08T06:32:22.624Z,483.80
2018-09-08T06:33:22.828Z,523.90
2018-09-08T06:34:23.012Z,378.90
2018-09-08T06:35:23.294Z,245.10
2018-09-08T06:36:23.379Z,184.30
2018-09-08T06:37:23.567Z,192.50
2018-09-08T06:38:23.756Z,221.40
2018-09-08T06:39:23.941Z,228.90
2018-09-08T06:40:24.129Z,134.70
2018-09-08T06:41:24.318Z,118.00
2018-09-08T06:42:24.512Z,137.60
2018-09-08T06:43:24.704Z,76.30
2018-09-08T06:44:24.884Z,114.30
2018-09-08T06:45:25.076Z,58.50
2018-09-08T06:46:25.276Z,21.00
2018-09-08T06:47:25.461Z,74.00
2018-09-08T06:48:25.654Z,46.90
2018-09-08T06:49:25.841Z,20.50
2018-09-08T06:50:26.037Z,19.30
2018-09-08T06:51:26.220Z,19.50
2018-09-08T06:52:26.411Z,12.20
2018-09-08T06:53:26.607Z,8.60
2018-09-08T06:54:26.796Z,8.30
2018-09-08T06:55:26.985Z,7.60
2018-09-08T06:56:27.180Z,9.00
2018-09-08T06:57:27.366Z,11.90
2018-09-08T06:58:27.560Z,19.80
2018-09-08T06:59:27.748Z,6.90
2018-09-08T07:00:27.946Z,11.70
2018-09-08T07:01:28.152Z,9.40
2018-09-08T07:02:28.341Z,10.90
2018-09-08T07:03:28.589Z,8.80
2018-09-08T07:04:28.734Z,9.30
2018-09-08T07:05:28.954Z,5.80
2018-09-08T07:06:29.142Z,8.90
2018-09-08T07:07:29.353Z,8.00
2018-09-08T07:08:29.541Z,15.80
2018-09-08T07:09:29.742Z,8.20
2018-09-08T07:10:29.918Z,7.10
2018-09-08T07:11:30.114Z,8.00
2018-09-08T07:12:30.311Z,6.00
2018-09-08T07:13:30.506Z,5.60
2018-09-08T07:14:30.701Z,5.70
2018-09-08T07:15:30.905Z,7.20
2018-09-08T07:16:31.103Z,4.90
2018-09-08T07:17:31.298Z,7.10
2018-09-08T07:18:31.498Z,20.50
2018-09-08T07:19:31.688Z,37.30
2018-09-08T07:20:31.883Z,104.60
2018-09-08T07:21:32.085Z,11.10
2018-09-08T07:22:32.281Z,6.10
2018-09-08T07:23:32.486Z,5.40
2018-09-08T07:24:32.676Z,4.70
2018-09-08T07:25:32.878Z,5.50
2018-09-08T07:26:33.072Z,4.70
2018-09-08T07:27:33.268Z,5.00
2018-09-08T07:28:33.468Z,5.20
2018-09-08T07:29:33.704Z,4.70
2018-09-08T07:30:33.914Z,4.80
2018-09-08T07:31:33.990Z,4.30
2018-09-08T07:32:34.185Z,4.10
2018-09-08T07:33:34.397Z,4.80
2018-09-08T07:34:34.591Z,4.60
2018-09-08T07:35:34.787Z,5.30
2018-09-08T07:36:34.984Z,4.20
2018-09-08T07:37:35.182Z,3.80
2018-09-08T07:38:35.384Z,5.20
2018-09-08T07:39:35.580Z,3.90
2018-09-08T07:40:35.778Z,4.50
2018-09-08T07:41:35.978Z,3.80
2018-09-08T07:42:36.176Z,4.20
2018-09-08T07:43:36.369Z,4.40
2018-09-08T07:44:36.570Z,4.80
2018-09-08T07:45:36.766Z,4.60
2018-09-08T07:46:36.963Z,4.30
2018-09-08T07:47:37.160Z,3.80
2018-09-08T07:48:37.369Z,3.80
2018-09-08T07:49:37.568Z,4.90
2018-09-08T07:50:37.769Z,4.30
2018-09-08T07:51:37.980Z,3.50
2018-09-08T07:52:38.175Z,4.10
2018-09-08T07:53:38.487Z,4.10
2018-09-08T07:54:38.580Z,5.50
2018-09-08T07:55:38.775Z,3.90
2018-09-08T07:56:38.996Z,3.90
2018-09-08T07:57:39.203Z,4.80
2018-09-08T07:58:39.400Z,3.50
2018-09-08T07:59:39.609Z,4.20
2018-09-08T08:00:39.808Z,4.30
2018-09-08T08:01:40.017Z,4.30
2018-09-08T08:02:40.218Z,4.70
2018-09-08T08:03:40.420Z,4.20
2018-09-08T08:04:40.617Z,5.70
2018-09-08T08:05:40.828Z,3.80
2018-09-08T08:06:41.081Z,5.20
2018-09-08T08:07:41.218Z,4.50
2018-09-08T08:08:41.420Z,3.90
2018-09-08T08:09:41.621Z,5.50
2018-09-08T08:10:41.822Z,4.40
2018-09-08T08:11:42.017Z,3.10
2018-09-08T08:12:42.219Z,4.60
2018-09-08T08:13:42.420Z,3.70
2018-09-08T08:14:42.633Z,3.50
2018-09-08T08:15:42.831Z,3.90
2018-09-08T08:16:43.035Z,4.20
2018-09-08T08:17:43.239Z,3.30
2018-09-08T08:18:43.447Z,4.00
2018-09-08T08:19:43.668Z,5.50
2018-09-08T08:20:43.866Z,4.70
2018-09-08T08:21:44.062Z,6.20
2018-09-08T08:22:44.263Z,4.00
2018-09-08T08:23:44.456Z,4.70
2018-09-08T08:24:44.665Z,3.20
2018-09-08T08:25:44.865Z,3.50
2018-09-08T08:26:45.071Z,3.50
2018-09-08T08:27:45.269Z,4.60
2018-09-08T08:28:45.477Z,3.90
2018-09-08T08:29:45.684Z,3.40
2018-09-08T08:30:45.885Z,3.40
2018-09-08T08:31:46.083Z,4.20
2018-09-08T08:32:46.275Z,4.00
2018-09-08T08:33:46.480Z,3.80
2018-09-08T08:34:46.705Z,5.20
2018-09-08T08:35:46.908Z,3.60
2018-09-08T08:36:47.107Z,3.80
2018-09-08T08:37:47.313Z,5.60
2018-09-08T08:38:47.519Z,3.50
2018-09-08T08:39:47.717Z,4.20
2018-09-08T08:40:47.921Z,3.80
2018-09-08T08:41:48.125Z,4.40
2018-09-08T08:42:48.324Z,4.30
2018-09-08T08:43:48.524Z,5.80
2018-09-08T08:44:48.726Z,3.40
2018-09-08T08:45:48.928Z,3.10
2018-09-08T08:46:49.131Z,3.30
2018-09-08T08:47:49.329Z,3.70
2018-09-08T08:48:49.536Z,3.70
2018-09-08T08:49:49.790Z,5.40
2018-09-08T08:50:49.953Z,8.20
2018-09-08T08:51:50.157Z,8.10
2018-09-08T08:52:50.372Z,3.90
2018-09-08T08:53:50.559Z,3.10
2018-09-08T08:54:50.760Z,2.90
2018-09-08T08:55:51.011Z,3.40
2018-09-08T08:56:51.172Z,3.70
2018-09-08T08:57:51.374Z,3.20
2018-09-08T08:58:51.578Z,3.80
2018-09-08T08:59:51.780Z,4.40
2018-09-08T09:00:51.991Z,3.50
2018-09-08T09:01:52.185Z,3.00
2018-09-08T09:02:52.408Z,3.10
2018-09-08T09:03:52.602Z,3.80
2018-09-08T09:04:52.821Z,3.30
2018-09-08T09:05:53.030Z,4.30
2018-09-08T09:06:53.419Z,4.50
2018-09-08T09:07:53.647Z,5.50
2018-09-08T09:08:53.623Z,4.50
2018-09-08T09:09:53.822Z,3.90
2018-09-08T09:10:54.028Z,2.70
2018-09-08T09:11:54.636Z,3.80
2018-09-08T09:12:54.496Z,3.70
2018-09-08T09:13:54.622Z,3.00
2018-09-08T09:14:54.832Z,3.80
2018-09-08T09:15:55.021Z,3.70
2018-09-08T09:16:55.315Z,3.20
2018-09-08T09:17:55.371Z,2.40
2018-09-08T09:18:55.999Z,3.20
2018-09-08T09:19:55.779Z,4.10
2018-09-08T09:20:55.981Z,3.80
2018-09-08T09:21:56.185Z,3.30
2018-09-08T09:22:56.378Z,3.30
2018-09-08T09:23:56.643Z,3.80
2018-09-08T09:24:56.833Z,4.20
2018-09-08T09:25:56.996Z,4.30
2018-09-08T09:26:57.200Z,3.60
2018-09-08T09:27:57.397Z,4.20
2018-09-08T09:28:57.596Z,3.50
2018-09-08T09:29:57.816Z,5.20
2018-09-08T09:30:58.013Z,2.90
2018-09-08T09:31:58.221Z,4.10
2018-09-08T09:32:58.435Z,3.80
2018-09-08T09:33:58.643Z,2.80
2018-09-08T09:34:58.848Z,4.80
2018-09-08T09:35:59.071Z,4.10
2018-09-08T09:36:59.282Z,4.80
2018-09-08T09:37:59.482Z,4.70
2018-09-08T09:38:59.692Z,3.40
2018-09-08T09:39:59.884Z,2.90
2018-09-08T09:41:00.097Z,3.20
2018-09-08T09:42:00.312Z,3.00
2018-09-08T09:43:00.520Z,3.60
2018-09-08T09:44:00.722Z,4.10
2018-09-08T09:45:00.926Z,3.70
2018-09-08T09:46:01.131Z,4.60
2018-09-08T09:47:01.336Z,4.20
2018-09-08T09:48:01.552Z,2.90
2018-09-08T09:49:01.735Z,4.50
2018-09-08T09:50:01.939Z,3.70
2018-09-08T09:51:02.152Z,3.70
2018-09-08T09:52:02.352Z,3.00
2018-09-08T09:53:02.590Z,3.40
2018-09-08T09:54:02.771Z,3.20
2018-09-08T09:55:02.996Z,3.30
2018-09-08T09:56:03.194Z,4.40
2018-09-08T09:57:03.394Z,2.80
2018-09-08T09:58:03.599Z,4.10
2018-09-08T09:59:03.815Z,4.70
2018-09-08T10:00:04.008Z,3.70
2018-09-08T10:01:04.226Z,3.20
2018-09-08T10:02:04.418Z,4.00
2018-09-08T10:03:04.619Z,3.60
2018-09-08T10:04:04.821Z,5.30
2018-09-08T10:05:05.025Z,5.20
2018-09-08T10:06:05.229Z,3.10
2018-09-08T10:07:05.426Z,3.70
2018-09-08T10:08:05.638Z,3.90
2018-09-08T10:09:05.843Z,4.20
2018-09-08T10:10:06.046Z,3.30
2018-09-08T10:11:06.246Z,2.30
2018-09-08T10:12:06.485Z,3.60
2018-09-08T10:13:06.664Z,3.90
2018-09-08T10:14:06.867Z,5.10
2018-09-08T10:15:07.060Z,3.20
2018-09-08T10:16:07.281Z,5.80
2018-09-08T10:17:07.481Z,3.00
2018-09-08T10:18:07.680Z,3.60
2018-09-08T10:19:07.899Z,4.10
2018-09-08T10:20:08.099Z,5.50
2018-09-08T10:21:08.300Z,4.40
2018-09-08T10:22:08.498Z,3.60
2018-09-08T10:23:08.790Z,5.30
2018-09-08T10:24:08.915Z,4.10
2018-09-08T10:25:09.116Z,3.60
2018-09-08T10:26:09.341Z,4.80
2018-09-08T10:27:09.525Z,3.30
2018-09-08T10:28:09.727Z,5.90
2018-09-08T10:29:09.928Z,3.40
2018-09-08T10:30:10.125Z,4.20
2018-09-08T10:31:10.332Z,3.00
2018-09-08T10:32:10.836Z,4.60
2018-09-08T10:33:10.731Z,4.00
2018-09-08T10:34:10.929Z,4.60
2018-09-08T10:35:11.142Z,5.10
2018-09-08T10:36:11.346Z,6.00
2018-09-08T10:37:11.549Z,3.40
2018-09-08T10:38:11.752Z,3.60
2018-09-08T10:39:11.957Z,3.40
2018-09-08T10:40:12.170Z,4.00
2018-09-08T10:41:12.369Z,3.90
2018-09-08T10:42:12.565Z,5.30
2018-09-08T10:43:12.781Z,4.20
2018-09-08T10:44:12.982Z,4.30
2018-09-08T10:45:13.189Z,4.10
2018-09-08T10:46:13.385Z,4.20
2018-09-08T10:47:13.585Z,3.50
2018-09-08T10:48:13.796Z,3.10
2018-09-08T10:49:14.015Z,5.30
2018-09-08T10:50:14.219Z,4.10
2018-09-08T10:51:14.419Z,3.10
2018-09-08T10:52:14.620Z,3.60
2018-09-08T10:53:14.822Z,4.30
2018-09-08T10:54:15.024Z,3.50
2018-09-08T10:55:15.213Z,6.00
2018-09-08T10:56:15.420Z,3.90
2018-09-08T10:57:15.621Z,3.30
2018-09-08T10:58:15.822Z,4.70
2018-09-08T10:59:16.020Z,4.80
2018-09-08T11:00:16.255Z,3.20
2018-09-08T11:01:16.443Z,5.10
2018-09-08T11:02:16.928Z,4.60
2018-09-08T11:03:16.840Z,3.30
2018-09-08T11:04:17.035Z,4.10
2018-09-08T11:05:17.239Z,3.50
2018-09-08T11:06:17.450Z,3.30
2018-09-08T11:07:17.635Z,3.40
2018-09-08T11:08:17.839Z,4.10
2018-09-08T11:09:18.038Z,4.60
2018-09-08T11:10:18.237Z,5.20
2018-09-08T11:11:18.435Z,3.10
2018-09-08T11:12:18.636Z,3.90
2018-09-08T11:13:18.840Z,3.30
2018-09-08T11:14:19.040Z,3.40
2018-09-08T11:15:19.242Z,4.10
2018-09-08T11:16:19.448Z,3.30
2018-09-08T11:17:19.645Z,3.00
2018-09-08T11:18:19.837Z,2.80
2018-09-08T11:19:20.047Z,4.20
2018-09-08T11:20:20.251Z,3.50
2018-09-08T11:21:20.465Z,3.20
2018-09-08T11:22:20.659Z,3.50
2018-09-08T11:23:20.861Z,6.50
2018-09-08T11:24:21.059Z,3.70
2018-09-08T11:25:21.261Z,2.50
2018-09-08T11:26:21.457Z,5.30
2018-09-08T11:27:21.656Z,4.60
2018-09-08T11:28:21.855Z,3.40
2018-09-08T11:29:22.048Z,2.70
2018-09-08T11:30:22.250Z,3.80
2018-09-08T11:31:22.453Z,5.00
2018-09-08T11:32:22.640Z,3.50
2018-09-08T11:33:22.878Z,4.00
2018-09-08T11:34:23.079Z,5.10
2018-09-08T11:35:23.259Z,2.50
2018-09-08T11:36:23.458Z,4.50
2018-09-08T11:37:23.658Z,3.50
2018-09-08T11:38:23.928Z,3.20
2018-09-08T11:39:24.067Z,3.90
2018-09-08T11:40:24.263Z,4.40
2018-09-08T11:41:24.461Z,4.70
2018-09-08T11:42:24.654Z,3.70
2018-09-08T11:43:24.855Z,4.10
2018-09-08T11:44:25.052Z,3.10
2018-09-08T11:45:25.259Z,2.80
2018-09-08T11:46:25.458Z,3.30
2018-09-08T11:47:25.653Z,3.20
2018-09-08T11:48:25.844Z,3.50
2018-09-08T11:49:26.056Z,3.80
2018-09-08T11:50:26.237Z,5.50
2018-09-08T11:51:26.434Z,5.30
2018-09-08T11:52:26.637Z,4.60
2018-09-08T11:53:26.832Z,4.90
2018-09-08T11:54:27.030Z,5.20
2018-09-08T11:55:27.267Z,5.90
2018-09-08T11:56:27.426Z,2.80
2018-09-08T11:57:27.619Z,4.60
2018-09-08T11:58:27.815Z,2.70
2018-09-08T11:59:28.051Z,4.30
2018-09-08T12:00:28.199Z,3.60
2018-09-08T12:01:28.397Z,4.40
2018-09-08T12:02:28.591Z,4.50
2018-09-08T12:03:28.797Z,5.20
2018-09-08T12:04:28.998Z,4.80
2018-09-08T12:05:29.202Z,5.10
2018-09-08T12:06:29.401Z,3.40
2018-09-08T12:07:29.581Z,4.10
2018-09-08T12:08:29.778Z,3.40
2018-09-08T12:09:29.983Z,5.80
2018-09-08T12:10:30.174Z,4.10
2018-09-08T12:11:30.368Z,3.90
2018-09-08T12:12:30.562Z,3.20
2018-09-08T12:13:30.755Z,3.70
2018-09-08T12:14:30.950Z,3.50
2018-09-08T12:15:31.176Z,3.50
2018-09-08T12:16:31.342Z,3.90
2018-09-08T12:17:31.527Z,5.90
2018-09-08T12:18:31.730Z,5.30
2018-09-08T12:19:31.925Z,4.80
2018-09-08T12:20:32.129Z,3.70
2018-09-08T12:21:32.329Z,3.00
2018-09-08T12:22:32.522Z,4.10
2018-09-08T12:23:32.729Z,4.10
2018-09-08T12:24:32.921Z,4.60
2018-09-08T12:25:33.125Z,4.30
2018-09-08T12:26:33.325Z,3.50
2018-09-08T12:27:33.519Z,4.20
2018-09-08T12:28:33.717Z,3.50
2018-09-08T12:29:33.916Z,3.80
2018-09-08T12:30:34.160Z,4.00
2018-09-08T12:31:34.302Z,2.90
2018-09-08T12:32:34.570Z,3.90
2018-09-08T12:33:34.698Z,3.60
2018-09-08T12:34:34.895Z,4.40
2018-09-08T12:35:35.088Z,3.40
2018-09-08T12:36:35.279Z,4.30
2018-09-08T12:37:35.480Z,3.40
2018-09-08T12:38:35.698Z,4.10
2018-09-08T12:39:35.863Z,5.80
2018-09-08T12:40:36.064Z,3.10
2018-09-08T12:41:36.259Z,3.30
2018-09-08T12:42:36.446Z,4.60
2018-09-08T12:43:36.652Z,3.90
2018-09-08T12:44:36.839Z,3.10
2018-09-08T12:45:37.038Z,4.70
2018-09-08T12:46:37.228Z,4.70
2018-09-08T12:47:37.423Z,4.90
2018-09-08T12:48:37.620Z,2.90
2018-09-08T12:49:37.812Z,4.20
2018-09-08T12:50:38.008Z,3.30
2018-09-08T12:51:38.204Z,3.60
2018-09-08T12:52:38.408Z,4.80
2018-09-08T12:53:38.611Z,3.90
2018-09-08T12:54:38.810Z,4.00
2018-09-08T12:55:38.999Z,3.00
2018-09-08T12:56:39.193Z,4.70
2018-09-08T12:57:39.388Z,3.20
2018-09-08T12:58:39.582Z,3.90